sensor_id;sensor_type;location;lat;lon;timestamp;P1;durP1;ratioP1;P2;durP2;ratioP2
7493;SDS011;3788;49.902;8.590;2023-07-13T00:01:26;1.03;;;0.90;;
7493;SDS011;3788;49.902;8.590;2023-07-13T00:03:54;1.20;;;0.97;;
7493;SDS011;3788;49.902;8.590;2023-07-13T00:06:21;1.53;;;1.10;;
7493;SDS011;3788;49.902;8.590;2023-07-13T00:08:47;1.10;;;1.00;;
7493;SDS011;3788;49.902;8.590;2023-07-13T00:11:15;1.50;;;1.03;;
7493;SDS011;3788;49.902;8.590;2023-07-13T00:13:42;1.03;;;0.97;;
7493;SDS011;3788;49.902;8.590;2023-07-13T00:16:11;1.00;;;1.00;;
7493;SDS011;3788;49.902;8.590;2023-07-13T00:18:38;1.80;;;1.00;;
7493;SDS011;3788;49.902;8.590;2023-07-13T00:21:06;0.83;;;0.83;;
7493;SDS011;3788;49.902;8.590;2023-07-13T00:23:33;1.27;;;1.17;;
7493;SDS011;3788;49.902;8.590;2023-07-13T00:25:59;2.53;;;1.30;;
7493;SDS011;3788;49.902;8.590;2023-07-13T00:28:26;1.27;;;1.10;;
7493;SDS011;3788;49.902;8.590;2023-07-13T00:30:53;1.60;;;1.07;;
7493;SDS011;3788;49.902;8.590;2023-07-13T00:33:21;1.23;;;1.10;;
7493;SDS011;3788;49.902;8.590;2023-07-13T00:35:48;0.83;;;0.83;;
7493;SDS011;3788;49.902;8.590;2023-07-13T00:38:16;0.97;;;0.97;;
7493;SDS011;3788;49.902;8.590;2023-07-13T00:40:43;1.20;;;1.10;;
7493;SDS011;3788;49.902;8.590;2023-07-13T00:43:15;1.37;;;1.20;;
7493;SDS011;3788;49.902;8.590;2023-07-13T00:48:53;1.23;;;1.10;;
7493;SDS011;3788;49.902;8.590;2023-07-13T00:51:22;1.30;;;1.20;;
7493;SDS011;3788;49.902;8.590;2023-07-13T00:53:53;2.13;;;1.10;;
7493;SDS011;3788;49.902;8.590;2023-07-13T00:56:22;1.43;;;1.30;;
7493;SDS011;3788;49.902;8.590;2023-07-13T00:58:49;0.90;;;0.90;;
7493;SDS011;3788;49.902;8.590;2023-07-13T01:01:16;1.30;;;1.20;;
7493;SDS011;3788;49.902;8.590;2023-07-13T01:03:43;1.90;;;1.13;;
7493;SDS011;3788;49.902;8.590;2023-07-13T01:06:13;1.23;;;1.10;;
7493;SDS011;3788;49.902;8.590;2023-07-13T01:08:40;1.07;;;1.00;;
7493;SDS011;3788;49.902;8.590;2023-07-13T01:11:06;1.37;;;1.27;;
7493;SDS011;3788;49.902;8.590;2023-07-13T01:13:34;1.30;;;1.20;;
7493;SDS011;3788;49.902;8.590;2023-07-13T01:16:02;1.27;;;1.17;;
7493;SDS011;3788;49.902;8.590;2023-07-13T01:18:33;1.27;;;1.20;;
7493;SDS011;3788;49.902;8.590;2023-07-13T01:21:01;2.80;;;1.20;;
7493;SDS011;3788;49.902;8.590;2023-07-13T01:23:30;1.13;;;1.07;;
7493;SDS011;3788;49.902;8.590;2023-07-13T01:25:58;1.30;;;1.20;;
7493;SDS011;3788;49.902;8.590;2023-07-13T01:28:26;1.23;;;1.13;;
7493;SDS011;3788;49.902;8.590;2023-07-13T01:30:53;1.73;;;0.93;;
7493;SDS011;3788;49.902;8.590;2023-07-13T01:33:21;1.10;;;1.10;;
7493;SDS011;3788;49.902;8.590;2023-07-13T01:35:48;0.93;;;0.93;;
7493;SDS011;3788;49.902;8.590;2023-07-13T01:38:20;1.00;;;0.97;;
7493;SDS011;3788;49.902;8.590;2023-07-13T01:40:48;0.90;;;0.90;;
7493;SDS011;3788;49.902;8.590;2023-07-13T01:43:15;1.10;;;1.10;;
7493;SDS011;3788;49.902;8.590;2023-07-13T01:45:42;1.37;;;1.10;;
7493;SDS011;3788;49.902;8.590;2023-07-13T01:48:09;1.27;;;1.17;;
7493;SDS011;3788;49.902;8.590;2023-07-13T01:50:36;1.53;;;1.10;;
7493;SDS011;3788;49.902;8.590;2023-07-13T01:53:03;1.73;;;1.10;;
7493;SDS011;3788;49.902;8.590;2023-07-13T01:55:32;1.30;;;1.20;;
7493;SDS011;3788;49.902;8.590;2023-07-13T01:57:59;1.70;;;1.57;;
7493;SDS011;3788;49.902;8.590;2023-07-13T02:00:26;1.33;;;1.20;;
7493;SDS011;3788;49.902;8.590;2023-07-13T02:02:53;1.30;;;1.20;;
7493;SDS011;3788;49.902;8.590;2023-07-13T02:05:19;1.30;;;1.20;;
7493;SDS011;3788;49.902;8.590;2023-07-13T02:07:46;1.73;;;1.30;;
7493;SDS011;3788;49.902;8.590;2023-07-13T02:10:14;1.40;;;1.30;;
7493;SDS011;3788;49.902;8.590;2023-07-13T02:12:42;1.30;;;1.20;;
7493;SDS011;3788;49.902;8.590;2023-07-13T02:15:09;2.50;;;1.20;;
7493;SDS011;3788;49.902;8.590;2023-07-13T02:17:36;1.27;;;1.03;;
7493;SDS011;3788;49.902;8.590;2023-07-13T02:20:03;4.20;;;1.73;;
7493;SDS011;3788;49.902;8.590;2023-07-13T02:22:31;2.17;;;1.20;;
7493;SDS011;3788;49.902;8.590;2023-07-13T02:24:58;1.73;;;1.63;;
7493;SDS011;3788;49.902;8.590;2023-07-13T02:27:25;1.33;;;1.23;;
7493;SDS011;3788;49.902;8.590;2023-07-13T02:29:53;1.43;;;1.23;;
7493;SDS011;3788;49.902;8.590;2023-07-13T02:32:20;1.53;;;1.43;;
7493;SDS011;3788;49.902;8.590;2023-07-13T02:34:47;1.10;;;1.10;;
7493;SDS011;3788;49.902;8.590;2023-07-13T02:37:14;1.40;;;1.20;;
7493;SDS011;3788;49.902;8.590;2023-07-13T02:39:41;1.50;;;1.40;;
7493;SDS011;3788;49.902;8.590;2023-07-13T02:42:08;1.53;;;1.43;;
7493;SDS011;3788;49.902;8.590;2023-07-13T02:44:34;1.87;;;1.40;;
7493;SDS011;3788;49.902;8.590;2023-07-13T02:47:02;2.20;;;1.70;;
7493;SDS011;3788;49.902;8.590;2023-07-13T02:49:29;2.23;;;1.67;;
7493;SDS011;3788;49.902;8.590;2023-07-13T02:51:56;1.97;;;1.80;;
7493;SDS011;3788;49.902;8.590;2023-07-13T02:54:23;1.57;;;1.47;;
7493;SDS011;3788;49.902;8.590;2023-07-13T02:56:50;1.90;;;1.80;;
7493;SDS011;3788;49.902;8.590;2023-07-13T02:59:16;2.63;;;1.60;;
7493;SDS011;3788;49.902;8.590;2023-07-13T03:01:43;1.63;;;1.53;;
7493;SDS011;3788;49.902;8.590;2023-07-13T03:04:11;1.97;;;1.60;;
7493;SDS011;3788;49.902;8.590;2023-07-13T03:06:38;2.23;;;1.60;;
7493;SDS011;3788;49.902;8.590;2023-07-13T03:09:04;2.07;;;1.87;;
7493;SDS011;3788;49.902;8.590;2023-07-13T03:11:31;3.77;;;1.60;;
7493;SDS011;3788;49.902;8.590;2023-07-13T03:13:58;2.20;;;1.70;;
7493;SDS011;3788;49.902;8.590;2023-07-13T03:16:25;2.03;;;1.93;;
7493;SDS011;3788;49.902;8.590;2023-07-13T03:18:51;2.57;;;1.50;;
7493;SDS011;3788;49.902;8.590;2023-07-13T03:21:19;2.73;;;1.87;;
7493;SDS011;3788;49.902;8.590;2023-07-13T03:23:46;1.10;;;1.10;;
7493;SDS011;3788;49.902;8.590;2023-07-13T03:26:15;2.10;;;1.90;;
7493;SDS011;3788;49.902;8.590;2023-07-13T03:28:43;1.87;;;1.73;;
7493;SDS011;3788;49.902;8.590;2023-07-13T03:31:11;1.87;;;1.70;;
7493;SDS011;3788;49.902;8.590;2023-07-13T03:33:40;1.80;;;1.67;;
7493;SDS011;3788;49.902;8.590;2023-07-13T03:36:07;2.03;;;1.50;;
7493;SDS011;3788;49.902;8.590;2023-07-13T03:38:38;2.33;;;1.80;;
7493;SDS011;3788;49.902;8.590;2023-07-13T03:41:05;2.53;;;1.57;;
7493;SDS011;3788;49.902;8.590;2023-07-13T03:43:31;2.13;;;1.50;;
7493;SDS011;3788;49.902;8.590;2023-07-13T03:45:58;2.73;;;1.83;;
7493;SDS011;3788;49.902;8.590;2023-07-13T03:48:24;1.60;;;1.50;;
7493;SDS011;3788;49.902;8.590;2023-07-13T03:50:51;2.10;;;1.80;;
7493;SDS011;3788;49.902;8.590;2023-07-13T03:53:18;1.73;;;1.43;;
7493;SDS011;3788;49.902;8.590;2023-07-13T03:55:46;1.60;;;1.50;;
7493;SDS011;3788;49.902;8.590;2023-07-13T03:58:29;2.00;;;1.53;;
7493;SDS011;3788;49.902;8.590;2023-07-13T04:00:58;1.77;;;1.67;;
7493;SDS011;3788;49.902;8.590;2023-07-13T04:03:26;1.57;;;1.47;;
7493;SDS011;3788;49.902;8.590;2023-07-13T04:05:53;1.53;;;1.43;;
7493;SDS011;3788;49.902;8.590;2023-07-13T04:08:23;1.97;;;1.60;;
7493;SDS011;3788;49.902;8.590;2023-07-13T04:10:51;1.70;;;1.60;;
7493;SDS011;3788;49.902;8.590;2023-07-13T04:13:18;2.17;;;1.97;;
7493;SDS011;3788;49.902;8.590;2023-07-13T04:15:44;1.47;;;1.37;;
7493;SDS011;3788;49.902;8.590;2023-07-13T04:18:11;1.50;;;1.40;;
7493;SDS011;3788;49.902;8.590;2023-07-13T04:20:38;2.07;;;1.93;;
7493;SDS011;3788;49.902;8.590;2023-07-13T04:23:04;2.83;;;1.87;;
7493;SDS011;3788;49.902;8.590;2023-07-13T04:25:31;2.20;;;1.70;;
7493;SDS011;3788;49.902;8.590;2023-07-13T04:27:59;1.93;;;1.70;;
7493;SDS011;3788;49.902;8.590;2023-07-13T04:30:26;2.23;;;1.67;;
7493;SDS011;3788;49.902;8.590;2023-07-13T04:32:52;2.13;;;1.60;;
7493;SDS011;3788;49.902;8.590;2023-07-13T04:35:19;1.50;;;1.40;;
7493;SDS011;3788;49.902;8.590;2023-07-13T04:37:46;1.53;;;1.43;;
7493;SDS011;3788;49.902;8.590;2023-07-13T04:40:15;1.50;;;1.40;;
7493;SDS011;3788;49.902;8.590;2023-07-13T04:42:42;1.50;;;1.40;;
7493;SDS011;3788;49.902;8.590;2023-07-13T04:45:10;1.60;;;1.50;;
7493;SDS011;3788;49.902;8.590;2023-07-13T04:47:38;2.23;;;1.60;;
7493;SDS011;3788;49.902;8.590;2023-07-13T04:50:05;2.70;;;1.70;;
7493;SDS011;3788;49.902;8.590;2023-07-13T04:52:33;1.93;;;1.80;;
7493;SDS011;3788;49.902;8.590;2023-07-13T04:55:00;2.43;;;1.67;;
7493;SDS011;3788;49.902;8.590;2023-07-13T04:57:27;1.60;;;1.50;;
7493;SDS011;3788;49.902;8.590;2023-07-13T04:59:54;1.93;;;1.80;;
7493;SDS011;3788;49.902;8.590;2023-07-13T05:02:22;1.80;;;1.63;;
7493;SDS011;3788;49.902;8.590;2023-07-13T05:04:48;1.70;;;1.60;;
7493;SDS011;3788;49.902;8.590;2023-07-13T05:07:15;1.77;;;1.67;;
7493;SDS011;3788;49.902;8.590;2023-07-13T05:09:42;2.33;;;1.47;;
7493;SDS011;3788;49.902;8.590;2023-07-13T05:12:09;1.67;;;1.57;;
7493;SDS011;3788;49.902;8.590;2023-07-13T05:14:36;1.70;;;1.60;;
7493;SDS011;3788;49.902;8.590;2023-07-13T05:17:03;2.97;;;1.60;;
7493;SDS011;3788;49.902;8.590;2023-07-13T05:19:31;1.97;;;1.40;;
7493;SDS011;3788;49.902;8.590;2023-07-13T05:21:58;1.67;;;1.33;;
7493;SDS011;3788;49.902;8.590;2023-07-13T05:24:25;2.23;;;1.40;;
7493;SDS011;3788;49.902;8.590;2023-07-13T05:26:51;1.67;;;1.50;;
7493;SDS011;3788;49.902;8.590;2023-07-13T05:29:19;1.57;;;1.47;;
7493;SDS011;3788;49.902;8.590;2023-07-13T05:31:46;1.60;;;1.50;;
7493;SDS011;3788;49.902;8.590;2023-07-13T05:34:13;1.83;;;1.30;;
7493;SDS011;3788;49.902;8.590;2023-07-13T05:36:41;1.80;;;1.70;;
7493;SDS011;3788;49.902;8.590;2023-07-13T05:39:08;2.33;;;1.57;;
7493;SDS011;3788;49.902;8.590;2023-07-13T05:41:36;1.73;;;1.63;;
7493;SDS011;3788;49.902;8.590;2023-07-13T05:44:03;2.50;;;1.63;;
7493;SDS011;3788;49.902;8.590;2023-07-13T05:46:29;2.27;;;1.67;;
7493;SDS011;3788;49.902;8.590;2023-07-13T05:48:56;1.53;;;1.43;;
7493;SDS011;3788;49.902;8.590;2023-07-13T05:51:23;1.93;;;1.57;;
7493;SDS011;3788;49.902;8.590;2023-07-13T05:53:51;1.57;;;1.47;;
7493;SDS011;3788;49.902;8.590;2023-07-13T05:56:18;1.20;;;1.10;;
7493;SDS011;3788;49.902;8.590;2023-07-13T05:58:45;1.80;;;1.40;;
7493;SDS011;3788;49.902;8.590;2023-07-13T06:01:12;2.47;;;1.27;;
7493;SDS011;3788;49.902;8.590;2023-07-13T06:03:39;1.50;;;1.30;;
7493;SDS011;3788;49.902;8.590;2023-07-13T06:06:07;3.23;;;1.20;;
7493;SDS011;3788;49.902;8.590;2023-07-13T06:08:35;2.17;;;1.10;;
7493;SDS011;3788;49.902;8.590;2023-07-13T06:11:04;1.63;;;1.10;;
7493;SDS011;3788;49.902;8.590;2023-07-13T06:13:32;1.70;;;1.10;;
7493;SDS011;3788;49.902;8.590;2023-07-13T06:15:59;2.27;;;1.30;;
7493;SDS011;3788;49.902;8.590;2023-07-13T06:18:29;3.10;;;1.57;;
7493;SDS011;3788;49.902;8.590;2023-07-13T06:20:55;1.30;;;1.20;;
7493;SDS011;3788;49.902;8.590;2023-07-13T06:23:22;3.43;;;1.53;;
7493;SDS011;3788;49.902;8.590;2023-07-13T06:25:49;2.00;;;1.20;;
7493;SDS011;3788;49.902;8.590;2023-07-13T06:28:18;2.40;;;1.10;;
7493;SDS011;3788;49.902;8.590;2023-07-13T06:30:45;1.50;;;1.30;;
7493;SDS011;3788;49.902;8.590;2023-07-13T06:33:14;3.70;;;1.73;;
7493;SDS011;3788;49.902;8.590;2023-07-13T06:35:42;1.43;;;1.30;;
7493;SDS011;3788;49.902;8.590;2023-07-13T06:38:09;1.20;;;1.10;;
7493;SDS011;3788;49.902;8.590;2023-07-13T06:40:35;3.87;;;1.40;;
7493;SDS011;3788;49.902;8.590;2023-07-13T06:43:02;2.70;;;1.40;;
7493;SDS011;3788;49.902;8.590;2023-07-13T06:45:32;0.97;;;0.97;;
7493;SDS011;3788;49.902;8.590;2023-07-13T06:48:01;1.90;;;1.17;;
7493;SDS011;3788;49.902;8.590;2023-07-13T06:50:28;1.07;;;0.97;;
7493;SDS011;3788;49.902;8.590;2023-07-13T06:52:56;2.93;;;1.20;;
7493;SDS011;3788;49.902;8.590;2023-07-13T06:55:24;0.80;;;0.80;;
7493;SDS011;3788;49.902;8.590;2023-07-13T06:57:51;2.67;;;1.57;;
7493;SDS011;3788;49.902;8.590;2023-07-13T07:00:18;1.00;;;0.90;;
7493;SDS011;3788;49.902;8.590;2023-07-13T07:02:46;1.73;;;1.00;;
7493;SDS011;3788;49.902;8.590;2023-07-13T07:05:12;3.33;;;1.20;;
7493;SDS011;3788;49.902;8.590;2023-07-13T07:07:39;2.23;;;1.03;;
7493;SDS011;3788;49.902;8.590;2023-07-13T07:10:06;2.83;;;0.83;;
7493;SDS011;3788;49.902;8.590;2023-07-13T07:12:34;1.73;;;1.00;;
7493;SDS011;3788;49.902;8.590;2023-07-13T07:15:01;2.70;;;0.93;;
7493;SDS011;3788;49.902;8.590;2023-07-13T07:17:28;3.93;;;1.40;;
7493;SDS011;3788;49.902;8.590;2023-07-13T07:19:56;2.13;;;0.97;;
7493;SDS011;3788;49.902;8.590;2023-07-13T07:22:22;2.93;;;1.10;;
7493;SDS011;3788;49.902;8.590;2023-07-13T07:24:52;1.37;;;1.10;;
7493;SDS011;3788;49.902;8.590;2023-07-13T07:27:18;0.80;;;0.80;;
7493;SDS011;3788;49.902;8.590;2023-07-13T07:29:45;1.60;;;1.00;;
7493;SDS011;3788;49.902;8.590;2023-07-13T07:32:12;2.00;;;0.87;;
7493;SDS011;3788;49.902;8.590;2023-07-13T07:34:39;3.53;;;1.00;;
7493;SDS011;3788;49.902;8.590;2023-07-13T07:37:09;3.07;;;1.23;;
7493;SDS011;3788;49.902;8.590;2023-07-13T07:39:37;2.00;;;1.20;;
7493;SDS011;3788;49.902;8.590;2023-07-13T07:42:05;3.73;;;1.20;;
7493;SDS011;3788;49.902;8.590;2023-07-13T07:44:32;2.53;;;1.17;;
7493;SDS011;3788;49.902;8.590;2023-07-13T07:46:59;2.77;;;1.30;;
7493;SDS011;3788;49.902;8.590;2023-07-13T07:49:26;4.20;;;1.57;;
7493;SDS011;3788;49.902;8.590;2023-07-13T07:51:53;2.67;;;1.27;;
7493;SDS011;3788;49.902;8.590;2023-07-13T07:54:21;5.40;;;1.47;;
7493;SDS011;3788;49.902;8.590;2023-07-13T07:56:47;2.37;;;1.00;;
7493;SDS011;3788;49.902;8.590;2023-07-13T07:59:14;3.63;;;1.00;;
7493;SDS011;3788;49.902;8.590;2023-07-13T08:01:41;4.23;;;1.30;;
7493;SDS011;3788;49.902;8.590;2023-07-13T08:04:08;3.77;;;1.37;;
7493;SDS011;3788;49.902;8.590;2023-07-13T08:06:35;3.33;;;1.17;;
7493;SDS011;3788;49.902;8.590;2023-07-13T08:09:02;2.20;;;0.97;;
7493;SDS011;3788;49.902;8.590;2023-07-13T08:11:30;2.73;;;1.10;;
7493;SDS011;3788;49.902;8.590;2023-07-13T08:13:57;3.60;;;1.40;;
7493;SDS011;3788;49.902;8.590;2023-07-13T08:16:24;2.90;;;1.27;;
7493;SDS011;3788;49.902;8.590;2023-07-13T08:18:51;1.27;;;1.17;;
7493;SDS011;3788;49.902;8.590;2023-07-13T08:21:17;1.67;;;0.90;;
7493;SDS011;3788;49.902;8.590;2023-07-13T08:23:45;1.20;;;1.00;;
7493;SDS011;3788;49.902;8.590;2023-07-13T08:26:12;1.17;;;1.03;;
7493;SDS011;3788;49.902;8.590;2023-07-13T08:28:40;1.63;;;0.70;;
7493;SDS011;3788;49.902;8.590;2023-07-13T08:31:07;4.70;;;1.10;;
7493;SDS011;3788;49.902;8.590;2023-07-13T08:33:35;1.83;;;1.00;;
7493;SDS011;3788;49.902;8.590;2023-07-13T08:36:03;2.37;;;1.00;;
7493;SDS011;3788;49.902;8.590;2023-07-13T08:38:31;2.00;;;1.00;;
7493;SDS011;3788;49.902;8.590;2023-07-13T08:40:58;1.53;;;0.93;;
7493;SDS011;3788;49.902;8.590;2023-07-13T08:43:26;2.93;;;1.00;;
7493;SDS011;3788;49.902;8.590;2023-07-13T08:45:58;2.30;;;1.30;;
7493;SDS011;3788;49.902;8.590;2023-07-13T08:48:28;1.67;;;0.97;;
7493;SDS011;3788;49.902;8.590;2023-07-13T08:51:00;1.00;;;1.00;;
7493;SDS011;3788;49.902;8.590;2023-07-13T08:53:36;3.57;;;1.00;;
7493;SDS011;3788;49.902;8.590;2023-07-13T08:56:08;0.90;;;0.80;;
7493;SDS011;3788;49.902;8.590;2023-07-13T08:58:42;2.03;;;0.90;;
7493;SDS011;3788;49.902;8.590;2023-07-13T09:01:14;1.27;;;0.90;;
7493;SDS011;3788;49.902;8.590;2023-07-13T09:03:46;1.60;;;0.80;;
7493;SDS011;3788;49.902;8.590;2023-07-13T09:06:20;4.23;;;1.07;;
7493;SDS011;3788;49.902;8.590;2023-07-13T09:08:55;2.77;;;1.07;;
7493;SDS011;3788;49.902;8.590;2023-07-13T09:11:29;1.13;;;0.80;;
7493;SDS011;3788;49.902;8.590;2023-07-13T09:14:05;2.33;;;0.93;;
7493;SDS011;3788;49.902;8.590;2023-07-13T09:16:47;1.80;;;1.13;;
7493;SDS011;3788;49.902;8.590;2023-07-13T09:19:17;1.63;;;0.90;;
7493;SDS011;3788;49.902;8.590;2023-07-13T09:21:49;1.90;;;1.13;;
7493;SDS011;3788;49.902;8.590;2023-07-13T09:24:26;1.47;;;1.00;;
7493;SDS011;3788;49.902;8.590;2023-07-13T09:26:57;2.13;;;0.87;;
7493;SDS011;3788;49.902;8.590;2023-07-13T09:29:26;1.20;;;1.00;;
7493;SDS011;3788;49.902;8.590;2023-07-13T09:31:57;3.13;;;0.80;;
7493;SDS011;3788;49.902;8.590;2023-07-13T09:34:27;3.33;;;1.20;;
7493;SDS011;3788;49.902;8.590;2023-07-13T09:36:55;0.70;;;0.70;;
7493;SDS011;3788;49.902;8.590;2023-07-13T09:39:23;1.10;;;0.70;;
7493;SDS011;3788;49.902;8.590;2023-07-13T09:41:53;1.23;;;0.90;;
7493;SDS011;3788;49.902;8.590;2023-07-13T09:44:29;1.63;;;1.10;;
7493;SDS011;3788;49.902;8.590;2023-07-13T09:46:58;1.53;;;0.93;;
7493;SDS011;3788;49.902;8.590;2023-07-13T09:49:26;1.07;;;0.80;;
7493;SDS011;3788;49.902;8.590;2023-07-13T09:51:57;1.37;;;0.80;;
7493;SDS011;3788;49.902;8.590;2023-07-13T09:54:26;1.13;;;1.03;;
7493;SDS011;3788;49.902;8.590;2023-07-13T09:56:56;0.93;;;0.87;;
7493;SDS011;3788;49.902;8.590;2023-07-13T09:59:24;1.70;;;0.93;;
7493;SDS011;3788;49.902;8.590;2023-07-13T10:01:54;3.50;;;1.27;;
7493;SDS011;3788;49.902;8.590;2023-07-13T10:04:26;1.13;;;0.93;;
7493;SDS011;3788;49.902;8.590;2023-07-13T10:07:04;1.10;;;0.90;;
7493;SDS011;3788;49.902;8.590;2023-07-13T10:09:32;5.50;;;1.10;;
7493;SDS011;3788;49.902;8.590;2023-07-13T10:11:59;0.83;;;0.80;;
7493;SDS011;3788;49.902;8.590;2023-07-13T10:14:26;0.80;;;0.80;;
7493;SDS011;3788;49.902;8.590;2023-07-13T10:16:57;1.77;;;0.90;;
7493;SDS011;3788;49.902;8.590;2023-07-13T10:19:29;1.33;;;0.83;;
7493;SDS011;3788;49.902;8.590;2023-07-13T10:21:59;1.73;;;1.00;;
7493;SDS011;3788;49.902;8.590;2023-07-13T10:24:29;0.80;;;0.80;;
7493;SDS011;3788;49.902;8.590;2023-07-13T10:27:00;1.20;;;0.80;;
7493;SDS011;3788;49.902;8.590;2023-07-13T10:29:32;0.83;;;0.70;;
7493;SDS011;3788;49.902;8.590;2023-07-13T10:32:03;1.93;;;1.10;;
7493;SDS011;3788;49.902;8.590;2023-07-13T10:34:36;1.33;;;0.93;;
7493;SDS011;3788;49.902;8.590;2023-07-13T10:37:03;1.50;;;1.10;;
7493;SDS011;3788;49.902;8.590;2023-07-13T10:39:33;1.20;;;1.10;;
7493;SDS011;3788;49.902;8.590;2023-07-13T10:42:03;0.77;;;0.70;;
7493;SDS011;3788;49.902;8.590;2023-07-13T10:44:33;1.97;;;1.00;;
7493;SDS011;3788;49.902;8.590;2023-07-13T10:47:00;2.13;;;1.10;;
7493;SDS011;3788;49.902;8.590;2023-07-13T10:49:31;1.10;;;1.00;;
7493;SDS011;3788;49.902;8.590;2023-07-13T10:52:01;1.43;;;0.80;;
7493;SDS011;3788;49.902;8.590;2023-07-13T10:54:30;2.23;;;0.90;;
7493;SDS011;3788;49.902;8.590;2023-07-13T10:57:08;2.27;;;1.30;;
7493;SDS011;3788;49.902;8.590;2023-07-13T10:59:43;1.43;;;0.90;;
7493;SDS011;3788;49.902;8.590;2023-07-13T11:02:15;1.37;;;1.00;;
7493;SDS011;3788;49.902;8.590;2023-07-13T11:04:49;1.80;;;0.90;;
7493;SDS011;3788;49.902;8.590;2023-07-13T11:07:20;1.83;;;0.83;;
7493;SDS011;3788;49.902;8.590;2023-07-13T11:09:49;1.67;;;0.90;;
7493;SDS011;3788;49.902;8.590;2023-07-13T11:12:27;1.70;;;1.00;;
7493;SDS011;3788;49.902;8.590;2023-07-13T11:15:26;1.43;;;1.10;;
7493;SDS011;3788;49.902;8.590;2023-07-13T11:17:56;1.77;;;1.17;;
7493;SDS011;3788;49.902;8.590;2023-07-13T11:23:20;1.27;;;1.03;;
7493;SDS011;3788;49.902;8.590;2023-07-13T11:25:57;2.40;;;1.13;;
7493;SDS011;3788;49.902;8.590;2023-07-13T11:28:26;2.77;;;1.00;;
7493;SDS011;3788;49.902;8.590;2023-07-13T11:31:00;0.90;;;0.77;;
7493;SDS011;3788;49.902;8.590;2023-07-13T11:33:45;1.47;;;1.10;;
7493;SDS011;3788;49.902;8.590;2023-07-13T11:36:19;1.53;;;1.20;;
7493;SDS011;3788;49.902;8.590;2023-07-13T11:38:51;1.03;;;0.93;;
7493;SDS011;3788;49.902;8.590;2023-07-13T11:41:26;2.13;;;1.17;;
7493;SDS011;3788;49.902;8.590;2023-07-13T11:43:55;2.43;;;1.00;;
7493;SDS011;3788;49.902;8.590;2023-07-13T11:46:28;1.20;;;1.10;;
7493;SDS011;3788;49.902;8.590;2023-07-13T11:48:55;1.27;;;0.80;;
7493;SDS011;3788;49.902;8.590;2023-07-13T11:51:22;1.30;;;1.20;;
7493;SDS011;3788;49.902;8.590;2023-07-13T11:53:54;2.17;;;1.13;;
7493;SDS011;3788;49.902;8.590;2023-07-13T11:56:22;1.43;;;1.00;;
7493;SDS011;3788;49.902;8.590;2023-07-13T11:58:53;1.47;;;0.90;;
7493;SDS011;3788;49.902;8.590;2023-07-13T12:01:23;1.73;;;0.97;;
7493;SDS011;3788;49.902;8.590;2023-07-13T12:03:54;1.53;;;1.07;;
7493;SDS011;3788;49.902;8.590;2023-07-13T12:06:23;1.33;;;1.00;;
7493;SDS011;3788;49.902;8.590;2023-07-13T12:08:56;2.33;;;0.90;;
7493;SDS011;3788;49.902;8.590;2023-07-13T12:11:24;1.47;;;1.07;;
7493;SDS011;3788;49.902;8.590;2023-07-13T12:13:51;1.63;;;1.23;;
7493;SDS011;3788;49.902;8.590;2023-07-13T12:16:21;1.60;;;1.03;;
7493;SDS011;3788;49.902;8.590;2023-07-13T12:18:54;0.93;;;0.90;;
7493;SDS011;3788;49.902;8.590;2023-07-13T12:21:23;1.10;;;1.00;;
7493;SDS011;3788;49.902;8.590;2023-07-13T12:23:57;1.30;;;1.07;;
7493;SDS011;3788;49.902;8.590;2023-07-13T12:26:24;2.07;;;1.13;;
7493;SDS011;3788;49.902;8.590;2023-07-13T12:28:51;1.43;;;1.00;;
7493;SDS011;3788;49.902;8.590;2023-07-13T12:34:08;1.70;;;0.93;;
7493;SDS011;3788;49.902;8.590;2023-07-13T12:36:37;0.90;;;0.80;;
7493;SDS011;3788;49.902;8.590;2023-07-13T12:39:14;2.80;;;1.23;;
7493;SDS011;3788;49.902;8.590;2023-07-13T12:41:43;1.53;;;0.90;;
7493;SDS011;3788;49.902;8.590;2023-07-13T12:44:11;1.17;;;1.00;;
7493;SDS011;3788;49.902;8.590;2023-07-13T12:46:39;1.43;;;1.00;;
7493;SDS011;3788;49.902;8.590;2023-07-13T12:49:16;1.10;;;1.00;;
7493;SDS011;3788;49.902;8.590;2023-07-13T12:51:44;1.03;;;1.00;;
7493;SDS011;3788;49.902;8.590;2023-07-13T12:54:18;1.60;;;1.10;;
7493;SDS011;3788;49.902;8.590;2023-07-13T12:56:45;3.00;;;1.00;;
7493;SDS011;3788;49.902;8.590;2023-07-13T12:59:18;2.83;;;1.23;;
7493;SDS011;3788;49.902;8.590;2023-07-13T13:01:47;2.53;;;1.47;;
7493;SDS011;3788;49.902;8.590;2023-07-13T13:04:15;2.53;;;1.10;;
7493;SDS011;3788;49.902;8.590;2023-07-13T13:06:46;2.67;;;1.03;;
7493;SDS011;3788;49.902;8.590;2023-07-13T13:09:14;1.57;;;1.23;;
7493;SDS011;3788;49.902;8.590;2023-07-13T13:11:44;2.37;;;1.10;;
7493;SDS011;3788;49.902;8.590;2023-07-13T13:14:11;2.10;;;1.20;;
7493;SDS011;3788;49.902;8.590;2023-07-13T13:16:42;1.43;;;1.23;;
7493;SDS011;3788;49.902;8.590;2023-07-13T13:19:13;3.67;;;1.20;;
7493;SDS011;3788;49.902;8.590;2023-07-13T13:21:41;3.00;;;1.10;;
7493;SDS011;3788;49.902;8.590;2023-07-13T13:24:10;2.83;;;1.20;;
7493;SDS011;3788;49.902;8.590;2023-07-13T13:26:38;1.37;;;0.90;;
7493;SDS011;3788;49.902;8.590;2023-07-13T13:29:10;1.90;;;1.07;;
7493;SDS011;3788;49.902;8.590;2023-07-13T13:31:39;2.63;;;1.23;;
7493;SDS011;3788;49.902;8.590;2023-07-13T13:34:07;1.50;;;1.10;;
7493;SDS011;3788;49.902;8.590;2023-07-13T13:36:35;1.87;;;1.17;;
7493;SDS011;3788;49.902;8.590;2023-07-13T13:39:02;1.80;;;1.10;;
7493;SDS011;3788;49.902;8.590;2023-07-13T13:41:31;3.33;;;1.50;;
7493;SDS011;3788;49.902;8.590;2023-07-13T13:43:58;1.47;;;0.90;;
7493;SDS011;3788;49.902;8.590;2023-07-13T13:46:26;2.00;;;1.00;;
7493;SDS011;3788;49.902;8.590;2023-07-13T13:48:54;1.73;;;1.10;;
7493;SDS011;3788;49.902;8.590;2023-07-13T13:51:22;3.37;;;1.27;;
7493;SDS011;3788;49.902;8.590;2023-07-13T13:53:50;2.67;;;1.20;;
7493;SDS011;3788;49.902;8.590;2023-07-13T13:56:18;2.80;;;1.00;;
7493;SDS011;3788;49.902;8.590;2023-07-13T13:58:46;0.97;;;0.90;;
7493;SDS011;3788;49.902;8.590;2023-07-13T14:01:14;2.43;;;0.83;;
7493;SDS011;3788;49.902;8.590;2023-07-13T14:03:45;1.93;;;1.30;;
7493;SDS011;3788;49.902;8.590;2023-07-13T14:06:13;1.37;;;0.93;;
7493;SDS011;3788;49.902;8.590;2023-07-13T14:08:41;1.67;;;1.00;;
7493;SDS011;3788;49.902;8.590;2023-07-13T14:11:08;2.10;;;1.17;;
7493;SDS011;3788;49.902;8.590;2023-07-13T14:13:39;1.30;;;0.90;;
7493;SDS011;3788;49.902;8.590;2023-07-13T14:16:10;1.10;;;1.00;;
7493;SDS011;3788;49.902;8.590;2023-07-13T14:18:38;2.43;;;1.00;;
7493;SDS011;3788;49.902;8.590;2023-07-13T14:21:09;1.57;;;1.20;;
7493;SDS011;3788;49.902;8.590;2023-07-13T14:23:38;1.67;;;1.00;;
7493;SDS011;3788;49.902;8.590;2023-07-13T14:26:07;2.30;;;1.10;;
7493;SDS011;3788;49.902;8.590;2023-07-13T14:28:37;1.67;;;1.20;;
7493;SDS011;3788;49.902;8.590;2023-07-13T14:31:08;3.97;;;1.63;;
7493;SDS011;3788;49.902;8.590;2023-07-13T14:33:35;2.97;;;1.13;;
7493;SDS011;3788;49.902;8.590;2023-07-13T14:36:02;2.13;;;1.23;;
7493;SDS011;3788;49.902;8.590;2023-07-13T14:38:30;1.37;;;0.80;;
7493;SDS011;3788;49.902;8.590;2023-07-13T14:40:57;2.80;;;1.10;;
7493;SDS011;3788;49.902;8.590;2023-07-13T14:43:24;2.10;;;1.00;;
7493;SDS011;3788;49.902;8.590;2023-07-13T14:45:53;3.67;;;1.67;;
7493;SDS011;3788;49.902;8.590;2023-07-13T14:48:21;1.17;;;1.00;;
7493;SDS011;3788;49.902;8.590;2023-07-13T14:50:50;1.00;;;0.80;;
7493;SDS011;3788;49.902;8.590;2023-07-13T14:53:20;1.43;;;1.20;;
7493;SDS011;3788;49.902;8.590;2023-07-13T14:55:49;1.83;;;1.00;;
7493;SDS011;3788;49.902;8.590;2023-07-13T14:58:15;2.93;;;1.27;;
7493;SDS011;3788;49.902;8.590;2023-07-13T15:00:42;1.37;;;1.10;;
7493;SDS011;3788;49.902;8.590;2023-07-13T15:03:13;1.10;;;1.00;;
7493;SDS011;3788;49.902;8.590;2023-07-13T15:05:46;1.57;;;1.00;;
7493;SDS011;3788;49.902;8.590;2023-07-13T15:08:13;1.33;;;0.90;;
7493;SDS011;3788;49.902;8.590;2023-07-13T15:10:41;2.77;;;1.20;;
7493;SDS011;3788;49.902;8.590;2023-07-13T15:13:15;1.63;;;1.00;;
7493;SDS011;3788;49.902;8.590;2023-07-13T15:15:43;1.77;;;1.00;;
7493;SDS011;3788;49.902;8.590;2023-07-13T15:18:13;1.20;;;1.10;;
7493;SDS011;3788;49.902;8.590;2023-07-13T15:20:42;1.13;;;1.00;;
7493;SDS011;3788;49.902;8.590;2023-07-13T15:23:10;2.70;;;0.80;;
7493;SDS011;3788;49.902;8.590;2023-07-13T15:25:38;1.83;;;0.90;;
7493;SDS011;3788;49.902;8.590;2023-07-13T15:28:07;1.00;;;1.00;;
7493;SDS011;3788;49.902;8.590;2023-07-13T15:30:36;2.60;;;0.80;;
7493;SDS011;3788;49.902;8.590;2023-07-13T15:33:09;2.40;;;1.00;;